Latest Weather Observations for Swan Hill

IDN60801

Issued at 11:52 pm EDT Sunday 25 October 2020 (issued every 10 minutes, with the page automatically refreshed every 10 minutes)

About weather observations | Map of weather stations | Latest weather observations for NSW | Other Formats
Station Details ID: 077094 Name: SWAN HILL AERODROME Lat: -35.38 Lon: 143.54 Height: 71.0 m
Data from the previous 72 hours. | See also: Recent months at Swan Hill
Date/Time
EDT
Temp
°C
App
Temp
°C
Dew
Point
°C
Rel
Hum
%
Delta-T
°C
Wind Press
QNH
hPa
Press
MSL
hPa
Rain since
9am
mm
Dir  Spd
km/h
Gust
km/h
Spd
kts
Gust
kts
25/11:30pm 9.9 6.6 4.7 70 2.3 S 11 17 6 9 1019.0 1018.9 0.0
25/11:00pm 10.4 6.0 4.5 67 2.6 S 17 24 9 13 1019.0 1018.9 0.0
25/10:30pm 10.8 6.4 4.7 66 2.8 S 17 26 9 14 1019.0 1018.9 0.0
25/10:00pm 11.5 6.5 4.5 62 3.2 S 20 33 11 18 1018.8 1018.7 0.0
25/09:30pm 12.1 7.1 4.6 60 3.4 SSE 20 32 11 17 1018.5 1018.4 0.0
25/09:00pm 12.7 8.2 4.4 57 3.8 S 17 26 9 14 1018.2 1018.1 0.0
25/08:30pm 13.4 8.4 3.8 52 4.4 S 19 28 10 15 1017.9 1017.9 0.0
25/08:00pm 13.6 8.8 2.5 47 4.9 S 17 28 9 15 1017.7 1017.7 0.0
25/07:30pm 14.6 9.0 1.5 41 5.7 S 20 32 11 17 1017.4 1017.4 0.0
25/07:00pm 15.7 10.0 0.3 35 6.6 SSE 20 33 11 18 1017.1 1017.1 0.0
25/06:30pm 16.5 10.6 -1.1 30 7.4 S 20 32 11 17 1016.7 1016.7 0.0
25/06:00pm 16.3 9.5 -1.7 29 7.4 SSE 24 37 13 20 1016.5 1016.5 0.0
25/05:30pm 17.4 11.5 -0.8 29 7.8 SSE 20 33 11 18 1016.3 1016.3 0.0
25/05:00pm 16.6 10.1 -2.5 27 7.8 SSE 22 43 12 23 1016.4 1016.4 0.0
25/04:30pm 16.9 9.6 -0.3 31 7.4 S 28 39 15 21 1016.5 1016.5 0.0
25/04:00pm 16.4 9.7 -1.2 30 7.4 S 24 41 13 22 1016.6 1016.6 0.0
25/03:30pm 16.4 10.1 -0.8 31 7.3 S 22 35 12 19 1016.9 1016.9 0.0
25/03:00pm 16.1 8.7 -1.0 31 7.1 SSE 28 46 15 25 1017.3 1017.3 0.0
25/02:55pm 15.8 8.3 -1.3 31 7.1 SSE 28 46 15 25 1017.5 1017.5 0.0
25/02:30pm 15.6 9.0 -0.6 33 6.8 SSE 24 39 13 21 1017.6 1017.6 0.0
25/02:00pm 15.7 9.1 -0.5 33 6.8 SSE 24 41 13 22 1017.7 1017.7 0.0
25/01:30pm 15.3 7.9 -0.9 33 6.7 SSE 28 48 15 26 1017.7 1017.7 0.0
25/01:00pm 14.8 7.4 -0.9 34 6.5 SSE 28 52 15 28 1018.2 1018.1 0.0
25/12:55pm 14.8 7.4 -0.9 34 6.5 SSE 28 52 15 28 1018.3 1018.2 0.0
25/12:30pm 14.4 7.0 -0.8 35 6.3 S 28 43 15 23 1018.6 1018.5 0.0
25/12:00pm 14.0 6.3 -0.4 37 6.0 SSE 30 44 16 24 1018.9 1018.8 0.0
25/11:30am 13.2 5.9 -0.1 40 5.5 SSE 28 50 15 27 1019.2 1019.1 0.0
25/11:15am 12.2 4.9 -0.3 42 5.1 S 28 46 15 25 1019.3 1019.2 0.0
25/11:00am 12.4 5.2 0.8 45 4.9 SSE 28 43 15 23 1019.4 1019.3 0.0
25/10:38am 11.9 4.7 1.0 47 4.6 S 28 46 15 25 1019.4 1019.3 0.0
25/10:30am 11.8 3.8 0.6 46 4.7 SSE 32 46 17 25 1019.4 1019.3 0.0
25/10:00am 11.2 3.0 0.6 48 4.4 SSE 33 52 18 28 1019.4 1019.3 0.0
25/09:50am 11.2 3.5 2.2 54 3.9 SSE 32 50 17 27 1019.4 1019.3 0.0
25/09:30am 11.1 3.1 1.9 53 3.9 S 33 46 18 25 1019.3 1019.2 0.0
25/09:00am 10.4 3.5 2.5 58 3.4 S 28 46 15 25 1019.0 1018.9 1.2
25/08:48am 9.9 3.0 2.5 60 3.2 S 28 48 15 26 1018.8 1018.7 1.2
25/08:30am 8.9 2.4 2.9 66 2.6 S 26 43 14 23 1018.7 1018.6 1.2
25/08:00am 8.1 2.1 3.2 71 2.1 S 24 35 13 19 1018.3 1018.2 1.2
25/07:30am 7.7 2.6 4.3 79 1.5 S 20 32 11 17 1017.8 1017.8 1.2
25/07:00am 6.6 2.1 4.3 85 1.0 S 17 28 9 15 1017.3 1017.3 1.2
25/06:30am 6.1 1.0 4.3 88 0.8 SSW 20 30 11 16 1016.8 1016.8 1.2
25/06:00am 6.0 1.0 4.5 90 0.6 SSW 20 33 11 18 1016.4 1016.4 1.2
25/05:30am 5.9 1.1 4.5 91 0.6 SSW 19 28 10 15 1016.2 1016.2 1.2
25/05:00am 5.7 0.8 4.2 90 0.6 SSW 19 24 10 13 1015.9 1015.9 1.2
25/04:30am 5.8 1.3 4.3 90 0.6 SW 17 22 9 12 1015.9 1015.9 1.2
25/04:00am 6.2 1.7 4.4 88 0.8 SW 17 24 9 13 1015.8 1015.8 1.2
25/03:30am 6.6 2.1 4.3 85 1.0 SW 17 22 9 12 1015.7 1015.7 1.2
25/03:00am 6.8 2.7 4.3 84 1.1 SSW 15 20 8 11 1015.6 1015.6 1.2
25/02:30am 7.0 3.2 4.1 82 1.3 SSW 13 19 7 10 1015.6 1015.6 1.2
25/02:00am 7.3 3.5 4.1 80 1.4 SSW 13 20 7 11 1015.5 1015.5 1.2
25/01:30am 7.6 3.4 3.8 77 1.6 SSW 15 24 8 13 1015.3 1015.2 1.2
25/01:00am 7.8 3.5 3.5 74 1.8 SSW 15 22 8 12 1015.2 1015.1 1.2
25/12:30am 8.3 4.1 3.6 72 2.0 SSW 15 22 8 12 1015.1 1015.0 1.2
25/12:00am 8.3 4.3 3.0 69 2.3 SSW 13 20 7 11 1014.8 1014.7 1.2
 
Date/Time
EDT
Temp
°C
App
Temp
°C
Dew
Point
°C
Rel
Hum
%
Delta-T
°C
Wind Press
QNH
hPa
Press
MSL
hPa
Rain since
9am
mm
Dir  Spd
km/h
Gust
km/h
Spd
kts
Gust
kts
24/11:30pm 8.6 5.0 3.0 68 2.4 S 11 15 6 8 1014.7 1014.6 1.2
24/11:00pm 9.6 5.2 2.9 63 2.9 S 15 24 8 13 1014.6 1014.5 1.2
24/10:30pm 10.0 5.1 2.1 58 3.3 SSW 17 26 9 14 1014.3 1014.2 1.2
24/10:00pm 10.4 5.0 1.5 54 3.7 S 19 28 10 15 1014.1 1014.0 1.2
24/09:30pm 11.0 4.7 1.3 51 4.1 SSW 24 39 13 21 1013.6 1013.5 1.2
24/09:00pm 11.6 5.3 1.3 49 4.3 SSW 24 50 13 27 1012.9 1012.8 1.2
24/08:32pm 12.3 5.2 1.6 48 4.6 SSW 28 46 15 25 1012.2 1012.1 1.2
24/08:30pm 12.4 5.4 1.7 48 4.6 SSW 28 43 15 23 1012.2 1012.1 1.2
24/08:00pm 13.4 6.8 2.0 46 5.0 SSW 26 43 14 23 1011.4 1011.3 1.2
24/07:30pm 13.9 7.9 3.4 49 4.7 SSW 24 37 13 20 1010.9 1010.8 1.2
24/07:00pm 14.9 9.0 4.0 48 5.0 SSW 24 39 13 21 1010.2 1010.1 1.2
24/06:40pm 15.8 9.1 3.6 44 5.6 SSW 28 48 15 26 1009.8 1009.7 1.2
24/06:30pm 16.7 10.1 4.4 44 5.8 S 28 39 15 21 1009.7 1009.6 1.2
24/06:15pm 16.3 9.8 4.7 46 5.5 SSW 28 46 15 25 1009.5 1009.4 1.2
24/06:00pm 17.1 9.9 4.8 44 5.9 SSW 32 48 17 26 1009.0 1008.9 1.2
24/05:31pm 18.6 12.4 6.1 44 6.2 SSW 28 52 15 28 1008.3 1008.2 1.2
24/05:30pm 18.6 12.8 6.1 44 6.2 SSW 26 52 14 28 1008.3 1008.2 1.2
24/05:04pm 18.2 11.7 6.4 46 5.9 SSW 30 48 16 26 1008.1 1008.0 1.2
24/05:00pm 18.1 11.2 6.3 46 5.9 SSW 32 48 17 26 1008.1 1008.0 1.2
24/04:46pm 18.5 11.9 6.0 44 6.2 SSW 30 48 16 26 1008.0 1007.9 1.2
24/04:30pm 18.3 11.2 6.2 45 6.0 SSW 33 48 18 26 1008.0 1007.9 1.2
24/04:11pm 18.3 10.7 5.8 44 6.1 SSW 35 54 19 29 1007.9 1007.8 1.2
24/04:00pm 18.5 11.7 6.7 46 5.9 SSW 32 46 17 25 1007.9 1007.8 1.2
24/03:30pm 17.8 13.0 7.2 50 5.3 S 22 39 12 21 1008.0 1007.9 1.2
24/03:00pm 17.3 12.5 7.4 52 5.0 S 22 37 12 20 1008.2 1008.1 1.2
24/02:30pm 16.0 12.0 9.2 64 3.5 S 20 33 11 18 1008.3 1008.2 1.2
24/02:00pm 14.2 10.8 11.4 83 1.5 S 20 39 11 21 1008.3 1008.2 1.2
24/01:33pm 13.4 10.2 11.8 90 0.9 S 20 37 11 20 1008.1 1008.0 1.2
24/01:30pm 13.2 9.6 11.8 91 0.8 SSW 22 37 12 20 1008.1 1008.0 1.2
24/01:00pm 12.9 8.3 11.1 89 1.0 SSW 26 43 14 23 1007.7 1007.6 1.2
24/12:30pm 13.2 9.1 11.6 90 0.9 SSW 24 33 13 18 1007.4 1007.3 1.2
24/12:00pm 13.6 9.6 11.8 89 1.0 SSW 24 39 13 21 1007.1 1007.0 1.2
24/11:30am 13.7 9.6 12.8 94 0.5 SSW 26 39 14 21 1006.9 1006.8 1.2
24/11:00am 13.7 10.6 13.5 99 0.1 SSW 22 33 12 18 1006.6 1006.5 1.2
24/10:30am 13.3 10.5 13.3 100 0.0 S 20 35 11 19 1006.4 1006.3 1.2
24/10:00am 13.3 10.5 13.3 100 0.0 SSW 20 35 11 19 1005.8 1005.7 1.0
24/09:30am 13.3 10.5 13.3 100 0.0 SSW 20 35 11 19 1005.3 1005.2 0.8
24/09:00am 13.5 10.0 13.5 100 0.0 SSW 24 39 13 21 1004.5 1004.4 9.2
24/08:30am 13.9 9.8 13.9 100 0.0 SSW 28 39 15 21 1003.7 1003.6 9.0
24/08:00am 14.7 11.7 14.7 100 0.0 SSW 24 33 13 18 1003.8 1003.7 8.8
24/07:30am 16.2 15.8 16.2 100 0.0 SSW 13 17 7 9 1003.5 1003.3 8.6
24/07:00am 16.3 16.7 16.3 100 0.0 WSW 9 11 5 6 1003.2 1003.1 7.6
24/06:41am 16.3 16.7 16.3 100 0.0 WSW 9 11 5 6 1003.5 1003.3 6.4
24/06:30am 16.3 16.7 16.3 100 0.0 WSW 9 11 5 6 1003.5 1003.3 6.0
24/06:00am 16.4 16.8 16.4 100 0.0 SW 9 13 5 7 1003.0 1002.9 3.4
24/05:30am 16.4 16.5 16.4 100 0.0 SSW 11 17 6 9 1002.7 1002.6 2.2
24/05:00am 16.4 16.5 16.4 100 0.0 S 11 17 6 9 1002.3 1002.2 2.2
24/04:30am 16.4 16.5 16.4 100 0.0 S 11 15 6 8 1002.2 1002.1 2.0
24/04:19am 16.5 16.2 16.5 100 0.0 S 13 17 7 9 1002.1 1002.0 2.0
24/04:00am 16.6 17.1 16.6 100 0.0 S 9 13 5 7 1002.3 1002.2 1.8
24/03:30am 16.6 17.1 16.6 100 0.0 S 9 13 5 7 1002.8 1002.7 1.4
24/03:00am 16.9 17.5 16.9 100 0.0 SSW 9 17 5 9 1003.1 1003.0 1.2
24/02:41am 17.2 18.3 17.2 100 0.0 SSW 7 11 4 6 1003.5 1003.3 0.6
24/02:30am 17.1 17.8 17.1 100 0.0 SSW 9 13 5 7 1003.1 1003.0 0.6
24/02:26am 17.1 17.8 17.1 100 0.0 SSW 9 13 5 7 1003.1 1003.0 0.6
24/02:15am 16.9 17.2 16.9 100 0.0 SSW 11 15 6 8 1003.1 1003.0 0.6
24/02:00am 16.9 17.5 16.9 100 0.0 SSW 9 13 5 7 1003.0 1002.9 0.6
24/01:30am 16.9 18.1 16.9 100 0.0 SE 6 7 3 4 1003.1 1003.0 0.6
24/01:00am 16.9 17.9 16.9 100 0.0 SE 7 9 4 5 1003.3 1003.2 0.6
24/12:30am 16.4 16.8 16.2 99 0.1 ESE 9 11 5 6 1003.3 1003.2 0.6
24/12:00am 16.8 18.2 16.5 98 0.2 ESE 4 6 2 3 1003.7 1003.6 0.6
 
Date/Time
EDT
Temp
°C
App
Temp
°C
Dew
Point
°C
Rel
Hum
%
Delta-T
°C
Wind Press
QNH
hPa
Press
MSL
hPa
Rain since
9am
mm
Dir  Spd
km/h
Gust
km/h
Spd
kts
Gust
kts
23/11:30pm 16.9 18.0 16.6 98 0.2 ESE 6 7 3 4 1003.7 1003.6 0.6
23/11:00pm 16.7 17.6 16.1 96 0.4 ESE 6 7 3 4 1003.6 1003.5 0.6
23/10:30pm 17.1 17.4 16.1 94 0.6 NNE 9 11 5 6 1003.1 1003.0 0.6
23/10:00pm 18.0 18.9 16.5 91 0.9 NNE 7 9 4 5 1003.5 1003.3 0.6
23/09:30pm 18.8 21.1 16.8 88 1.2 CALM 0 0 0 0 1003.8 1003.7 0.6
23/09:00pm 18.8 20.6 16.4 86 1.4 NNE 2 9 1 5 1004.2 1004.1 0.6
23/08:30pm 19.0 19.6 16.8 87 1.3 ESE 9 13 5 7 1003.3 1003.2 0.6
23/08:00pm 19.4 20.1 16.2 82 1.9 NE 7 9 4 5 1003.3 1003.2 0.4
23/07:30pm 21.1 22.4 14.0 64 4.1 CALM 0 6 0 3 1003.3 1003.2 0.0
23/07:00pm 21.5 21.6 13.9 62 4.4 NE 6 7 3 4 1003.3 1003.2 0.0
23/06:30pm 22.1 22.1 13.5 58 5.0 NE 6 7 3 4 1003.3 1003.2 0.0
23/06:00pm 22.7 22.4 13.2 55 5.5 NE 7 9 4 5 1003.6 1003.5 0.0
23/05:30pm 22.9 22.5 13.1 54 5.7 NE 7 9 4 5 1003.7 1003.6 0.0
23/05:00pm 22.7 21.9 14.0 58 5.1 NNE 11 13 6 7 1003.8 1003.7 0.0
23/04:30pm 23.4 23.5 13.8 54 5.6 SSW 6 11 3 6 1004.4 1004.3 0.0
23/04:00pm 23.4 23.3 13.8 54 5.6 SSW 7 11 4 6 1004.8 1004.7 0.0
23/03:30pm 23.1 23.0 14.9 60 4.9 SW 9 17 5 9 1005.0 1004.9 0.0
23/03:00pm 23.3 22.0 13.8 55 5.6 N 13 22 7 12 1005.4 1005.3 0.0
23/02:30pm 22.9 21.2 13.7 56 5.4 NNW 15 26 8 14 1005.8 1005.7 0.0
23/02:00pm 23.8 20.9 12.8 50 6.4 NW 20 28 11 15 1006.0 1005.9 0.0
23/01:30pm 25.6 21.1 10.2 38 8.6 NNW 24 32 13 17 1005.9 1005.8 0.0
23/01:00pm 25.3 21.3 10.4 39 8.3 NNW 22 32 12 17 1006.2 1006.1 0.0
23/12:30pm 24.8 18.7 9.9 39 8.2 NW 32 39 17 21 1006.6 1006.5 0.0
23/12:00pm 23.3 19.9 10.4 44 7.1 NNW 19 28 10 15 1006.9 1006.8 0.0
23/11:30am 21.8 22.2 12.4 55 5.3 NE 2 9 1 5 1006.5 1006.4 0.0
23/11:00am 20.2 20.1 13.4 65 3.9 N 6 9 3 5 1006.5 1006.4 0.0
23/10:30am 21.4 20.9 9.3 46 6.5 NW 2 9 1 5 1006.7 1006.6 0.0
23/10:00am 21.5 20.0 8.4 43 6.9 WSW 6 9 3 5 1007.0 1006.9 0.0
23/09:30am 20.6 20.1 9.2 48 6.1 NE 2 6 1 3 1006.8 1006.7 0.0
23/09:00am 19.5 16.5 9.1 51 5.5 NE 15 20 8 11 1006.5 1006.4 0.0
23/08:30am 19.5 16.5 9.1 51 5.5 NE 15 20 8 11 1006.3 1006.2 0.0
23/08:00am 19.5 16.7 8.5 49 5.8 ENE 13 19 7 10 1006.1 1006.0 0.0
23/07:30am 18.8 15.9 8.2 50 5.5 ENE 13 19 7 10 1005.9 1005.8 0.0
23/07:00am 18.4 15.5 8.1 51 5.3 NE 13 17 7 9 1006.0 1005.9 0.0
23/06:30am 18.9 14.8 7.7 48 5.7 ENE 19 26 10 14 1005.7 1005.6 0.0
23/06:00am 19.4 15.2 7.5 46 6.1 ENE 19 28 10 15 1005.5 1005.4 0.0
23/05:30am 19.4 16.0 7.8 47 6.0 ENE 15 20 8 11 1006.0 1005.9 0.0
23/05:00am 19.5 16.2 7.9 47 6.0 ENE 15 20 8 11 1006.0 1005.9 0.0
23/04:30am 19.7 16.7 7.8 46 6.1 ENE 13 20 7 11 1006.5 1006.4 0.0
23/04:00am 19.8 16.5 7.9 46 6.2 ENE 15 19 8 10 1006.6 1006.5 0.0
23/03:30am 19.8 16.1 7.9 46 6.1 ENE 17 22 9 12 1006.8 1006.7 0.0
23/03:00am 19.9 16.2 7.9 46 6.2 ENE 17 22 9 12 1007.2 1007.1 0.0
23/02:30am 20.4 17.0 7.7 44 6.6 ENE 15 20 8 11 1007.7 1007.6 0.0
23/02:00am 20.5 17.8 7.5 43 6.7 E 11 19 6 10 1007.8 1007.7 0.0
23/01:30am 20.7 18.1 7.7 43 6.7 E 11 15 6 8 1008.4 1008.3 0.0
23/01:00am 20.9 18.2 7.2 41 7.0 E 11 15 6 8 1008.8 1008.7 0.0
23/12:30am 21.1 17.9 7.0 40 7.2 E 13 20 7 11 1008.7 1008.6 0.0
23/12:00am 20.1 16.6 7.1 43 6.6 ESE 15 20 8 11 1008.3 1008.2 0.0

Other formats

Comma delimited format used in spreadsheet applications
http://www.bom.gov.au/fwo/IDN60801/IDN60801.94843.axf

JavaScript Object Notation format (JSON) in row-major order
http://www.bom.gov.au/fwo/IDN60801/IDN60801.94843.json

Data quality

Most of these data are generated automatically and are frequently updated. Quality checks on data are not normally performed. It is possible for incorrect values to appear. Refer to information at About Latest Weather Observations and please check the disclaimer before using these data.